createdAt,value
2023-07-07T00:00:27.660Z,18.97
2023-07-07T00:02:54.760Z,12.33
2023-07-07T00:05:21.878Z,9.93
2023-07-07T00:07:50.162Z,14.97
2023-07-07T00:10:17.911Z,11.67
2023-07-07T00:12:45.684Z,14.30
2023-07-07T00:15:13.330Z,14.27
2023-07-07T00:17:43.151Z,14.30
2023-07-07T00:20:15.490Z,12.67
2023-07-07T00:22:42.855Z,13.93
2023-07-07T00:25:10.980Z,7.07
2023-07-07T00:27:38.946Z,10.37
2023-07-07T00:30:07.205Z,9.90
2023-07-07T00:32:34.806Z,16.03
2023-07-07T00:35:03.813Z,8.90
2023-07-07T00:37:30.857Z,13.27
2023-07-07T00:39:57.898Z,13.73
2023-07-07T00:42:24.992Z,18.53
2023-07-07T00:45:13.865Z,21.13
2023-07-07T00:47:53.784Z,11.50
2023-07-07T00:50:23.177Z,17.37
2023-07-07T00:52:50.605Z,14.20
2023-07-07T00:55:26.003Z,15.93
2023-07-07T00:57:55.383Z,13.87
2023-07-07T01:00:22.661Z,15.70
2023-07-07T01:02:56.039Z,16.17
2023-07-07T01:05:26.775Z,13.40
2023-07-07T01:07:54.452Z,12.37
2023-07-07T01:10:22.091Z,10.60
2023-07-07T01:12:51.331Z,12.27
2023-07-07T01:15:19.245Z,13.50
2023-07-07T01:17:51.668Z,17.93
2023-07-07T01:20:18.827Z,7.60
2023-07-07T01:23:07.618Z,7.10
2023-07-07T01:25:50.604Z,11.53
2023-07-07T01:28:55.302Z,8.00
2023-07-07T01:31:35.565Z,8.23
2023-07-07T01:34:03.776Z,7.97
2023-07-07T01:36:30.731Z,10.60
2023-07-07T01:38:59.653Z,7.90
2023-07-07T01:41:33.986Z,10.03
2023-07-07T01:44:24.438Z,11.27
2023-07-07T01:47:12.068Z,8.27
2023-07-07T01:49:50.334Z,9.73
2023-07-07T01:52:32.315Z,6.60
2023-07-07T01:55:06.435Z,14.80
2023-07-07T01:57:36.036Z,8.67
2023-07-07T02:00:08.084Z,21.77
2023-07-07T02:02:43.788Z,12.70
2023-07-07T02:05:13.072Z,16.40
2023-07-07T02:07:42.132Z,19.00
2023-07-07T02:10:10.470Z,20.40
2023-07-07T02:12:37.646Z,20.00
2023-07-07T02:15:05.356Z,20.67
2023-07-07T02:17:32.444Z,18.43
2023-07-07T02:19:59.903Z,22.97
2023-07-07T02:22:27.125Z,37.17
2023-07-07T02:24:57.437Z,30.73
2023-07-07T02:27:24.501Z,27.20
2023-07-07T02:29:51.607Z,35.03
2023-07-07T02:32:18.632Z,24.57
2023-07-07T02:34:49.130Z,18.83
2023-07-07T02:37:17.934Z,26.73
2023-07-07T02:39:46.272Z,17.37
2023-07-07T02:42:14.105Z,25.57
2023-07-07T02:44:41.462Z,31.83
2023-07-07T02:47:09.814Z,23.77
2023-07-07T02:49:37.232Z,34.90
2023-07-07T02:52:05.551Z,27.43
2023-07-07T02:54:35.235Z,16.63
2023-07-07T02:57:03.888Z,20.43
2023-07-07T02:59:30.880Z,17.33
2023-07-07T03:01:57.912Z,30.83
2023-07-07T03:04:26.266Z,35.70
2023-07-07T03:06:53.625Z,27.10
2023-07-07T03:09:21.484Z,35.27
2023-07-07T03:11:48.598Z,33.80
2023-07-07T03:14:21.058Z,33.27
2023-07-07T03:16:53.359Z,34.33
2023-07-07T03:19:27.442Z,40.33
2023-07-07T03:22:05.111Z,42.80
2023-07-07T03:24:42.048Z,39.83
2023-07-07T03:27:18.476Z,34.50
2023-07-07T03:29:45.792Z,33.60
2023-07-07T03:32:16.052Z,42.80
2023-07-07T03:34:45.599Z,36.07
2023-07-07T03:37:13.851Z,28.70
2023-07-07T03:39:42.100Z,37.97
2023-07-07T03:42:10.606Z,30.47
2023-07-07T03:44:38.247Z,27.70
2023-07-07T03:47:05.598Z,35.90
2023-07-07T03:49:32.657Z,49.13
2023-07-07T03:52:00.187Z,29.43
2023-07-07T03:54:27.667Z,34.13
2023-07-07T03:56:54.628Z,29.27
2023-07-07T03:59:22.476Z,36.33
2023-07-07T04:01:50.723Z,45.63
2023-07-07T04:04:18.064Z,30.97
2023-07-07T04:06:45.102Z,38.03
2023-07-07T04:09:12.240Z,24.67
2023-07-07T04:11:39.288Z,23.37
2023-07-07T04:14:06.319Z,24.57
2023-07-07T04:16:33.394Z,23.87
2023-07-07T04:19:00.519Z,22.33
2023-07-07T04:21:29.369Z,28.17
2023-07-07T04:23:58.312Z,22.43
2023-07-07T04:26:27.879Z,15.90
2023-07-07T04:28:55.757Z,20.03
2023-07-07T04:31:25.209Z,29.70
2023-07-07T04:33:52.747Z,26.63
2023-07-07T04:36:20.756Z,19.23
2023-07-07T04:38:47.759Z,14.77
2023-07-07T04:41:16.343Z,13.83
2023-07-07T04:43:46.859Z,9.20
2023-07-07T04:46:17.832Z,9.10
2023-07-07T04:48:45.430Z,6.57
2023-07-07T04:51:13.706Z,7.90
2023-07-07T04:53:42.281Z,10.80
2023-07-07T04:56:11.233Z,5.50
2023-07-07T04:58:40.364Z,6.23
2023-07-07T05:01:18.002Z,8.37
2023-07-07T05:03:46.369Z,5.87
2023-07-07T05:06:14.118Z,10.30
2023-07-07T05:08:42.943Z,6.60
2023-07-07T05:11:18.932Z,7.60
2023-07-07T05:13:50.649Z,8.70
2023-07-07T05:16:23.090Z,9.37
2023-07-07T05:18:50.612Z,7.33
2023-07-07T05:21:22.266Z,8.30
2023-07-07T05:23:53.500Z,7.60
2023-07-07T05:26:31.302Z,7.80
2023-07-07T05:29:01.523Z,8.47
2023-07-07T05:31:28.936Z,7.70
2023-07-07T05:33:55.985Z,8.50
2023-07-07T05:36:22.947Z,7.50
2023-07-07T05:38:51.466Z,7.57
2023-07-07T05:41:18.591Z,7.63
2023-07-07T05:43:45.600Z,7.60
2023-07-07T05:46:15.025Z,7.93
2023-07-07T05:48:43.751Z,10.87
2023-07-07T05:51:14.314Z,7.53
2023-07-07T05:53:44.902Z,8.13
2023-07-07T05:56:20.188Z,9.00
2023-07-07T05:58:47.324Z,7.70
2023-07-07T06:01:15.485Z,6.43
2023-07-07T06:03:43.845Z,6.17
2023-07-07T06:06:11.320Z,6.77
2023-07-07T06:08:41.192Z,6.03
2023-07-07T06:11:08.650Z,11.17
2023-07-07T06:13:35.652Z,7.50
2023-07-07T06:16:02.821Z,6.27
2023-07-07T06:18:29.927Z,5.33
2023-07-07T06:21:03.165Z,6.33
2023-07-07T06:23:31.850Z,4.83
2023-07-07T06:25:58.948Z,5.60
2023-07-07T06:28:25.957Z,7.70
2023-07-07T06:30:53.707Z,5.00
2023-07-07T06:33:22.194Z,7.70
2023-07-07T06:35:49.997Z,5.27
2023-07-07T06:38:16.923Z,4.77
2023-07-07T06:40:44.097Z,7.90
2023-07-07T06:43:11.045Z,6.23
2023-07-07T06:45:39.275Z,4.40
2023-07-07T06:48:07.069Z,6.10
2023-07-07T06:50:42.802Z,5.10
2023-07-07T06:53:11.796Z,5.20
2023-07-07T06:55:39.475Z,6.23
2023-07-07T06:58:06.562Z,5.20
2023-07-07T07:00:33.728Z,6.17
2023-07-07T07:03:00.775Z,6.67
2023-07-07T07:05:27.781Z,10.30
2023-07-07T07:07:55.418Z,6.73
2023-07-07T07:10:22.366Z,7.67
2023-07-07T07:12:49.673Z,7.77
2023-07-07T07:15:16.918Z,5.80
2023-07-07T07:17:44.834Z,4.33
2023-07-07T07:20:12.824Z,7.93
2023-07-07T07:22:39.767Z,7.00
2023-07-07T07:25:08.175Z,4.40
2023-07-07T07:27:35.353Z,5.00
2023-07-07T07:30:02.306Z,5.50
2023-07-07T07:32:29.501Z,7.73
2023-07-07T07:34:56.454Z,5.00
2023-07-07T07:37:23.438Z,4.87
2023-07-07T07:39:50.398Z,5.00
2023-07-07T07:42:17.267Z,7.60
2023-07-07T07:44:44.197Z,5.07
2023-07-07T07:47:11.207Z,5.73
2023-07-07T07:49:38.214Z,5.53
2023-07-07T07:52:05.623Z,4.93
2023-07-07T07:54:32.563Z,6.03
2023-07-07T07:57:00.189Z,8.67
2023-07-07T07:59:27.076Z,4.60
2023-07-07T08:01:53.989Z,4.63
2023-07-07T08:04:20.942Z,8.07
2023-07-07T08:06:56.795Z,6.60
2023-07-07T08:09:23.928Z,4.23
2023-07-07T08:11:50.793Z,6.53
2023-07-07T08:14:20.336Z,5.37
2023-07-07T08:16:48.815Z,5.80
2023-07-07T08:19:19.360Z,4.13
2023-07-07T08:21:47.734Z,4.30
2023-07-07T08:24:15.205Z,7.10
2023-07-07T08:26:42.219Z,6.10
2023-07-07T08:29:24.584Z,4.93
2023-07-07T08:31:52.610Z,4.30
2023-07-07T08:34:19.903Z,3.57
2023-07-07T08:36:48.879Z,4.53
2023-07-07T08:39:23.490Z,8.20
2023-07-07T08:42:02.787Z,4.83
2023-07-07T08:44:32.689Z,4.43
2023-07-07T08:47:11.791Z,3.57
2023-07-07T08:49:48.492Z,4.23
2023-07-07T08:52:29.943Z,4.43
2023-07-07T08:55:30.672Z,4.37
2023-07-07T08:58:29.521Z,4.30
2023-07-07T09:01:21.940Z,3.77
2023-07-07T09:04:06.240Z,3.60
2023-07-07T09:06:46.209Z,4.40
2023-07-07T09:09:42.358Z,4.60
2023-07-07T09:12:26.018Z,4.27
2023-07-07T09:14:56.863Z,3.57
2023-07-07T09:17:33.832Z,4.20
2023-07-07T09:20:04.383Z,4.50
2023-07-07T09:23:03.420Z,5.20
2023-07-07T09:25:48.991Z,5.03
2023-07-07T09:28:18.192Z,3.63
2023-07-07T09:30:54.230Z,3.60
2023-07-07T09:33:24.618Z,4.57
2023-07-07T09:36:14.106Z,4.10
2023-07-07T09:39:06.039Z,4.20
2023-07-07T09:41:45.112Z,4.37
2023-07-07T09:44:36.892Z,4.40
2023-07-07T09:47:33.115Z,7.53
2023-07-07T09:50:13.587Z,5.10
2023-07-07T09:52:40.444Z,4.00
2023-07-07T09:55:21.165Z,4.23
2023-07-07T09:57:57.737Z,3.83
2023-07-07T10:00:43.408Z,5.50
2023-07-07T10:03:23.302Z,4.87
2023-07-07T10:05:54.007Z,4.00
2023-07-07T10:08:20.884Z,5.03
2023-07-07T10:11:02.520Z,3.50
2023-07-07T10:13:39.579Z,4.07
2023-07-07T10:16:09.252Z,4.47
2023-07-07T10:18:45.310Z,4.00
2023-07-07T10:21:20.508Z,3.40
2023-07-07T10:23:47.373Z,4.40
2023-07-07T10:26:14.420Z,4.57
2023-07-07T10:28:41.664Z,3.90
2023-07-07T10:31:10.931Z,5.80
2023-07-07T10:33:37.980Z,5.00
2023-07-07T10:36:29.837Z,4.63
2023-07-07T10:38:57.796Z,3.70
2023-07-07T10:41:25.653Z,4.83
2023-07-07T10:43:53.385Z,3.70
2023-07-07T10:46:20.434Z,4.80
2023-07-07T10:48:48.171Z,5.70
2023-07-07T10:51:26.344Z,4.13
2023-07-07T10:54:02.314Z,3.87
2023-07-07T10:56:55.349Z,3.43
2023-07-07T10:59:53.514Z,4.23
2023-07-07T11:02:55.704Z,3.80
2023-07-07T11:05:35.616Z,4.00
2023-07-07T11:08:29.712Z,4.90
2023-07-07T11:11:19.630Z,4.83
2023-07-07T11:13:58.894Z,6.83
2023-07-07T11:17:07.437Z,5.00
2023-07-07T11:19:55.436Z,3.83
2023-07-07T11:22:35.242Z,5.67
2023-07-07T11:25:17.250Z,3.53
2023-07-07T11:28:10.138Z,4.00
2023-07-07T11:30:58.695Z,6.23
2023-07-07T11:33:52.052Z,6.20
2023-07-07T11:36:40.240Z,4.17
2023-07-07T11:39:30.173Z,3.83
2023-07-07T11:42:19.626Z,3.77
2023-07-07T11:45:15.951Z,5.23
2023-07-07T11:48:17.362Z,3.80
2023-07-07T11:51:16.662Z,4.03
2023-07-07T11:53:49.700Z,5.67
2023-07-07T11:56:47.588Z,4.13
2023-07-07T11:59:52.289Z,8.43
2023-07-07T12:02:36.327Z,4.00
2023-07-07T12:05:08.606Z,5.60
2023-07-07T12:07:48.872Z,3.73
2023-07-07T12:10:18.713Z,3.77
2023-07-07T12:12:56.788Z,4.70
2023-07-07T12:15:31.021Z,4.37
2023-07-07T12:18:19.186Z,5.23
2023-07-07T12:21:12.813Z,4.93
2023-07-07T12:23:56.279Z,4.23
2023-07-07T12:26:36.792Z,4.33
2023-07-07T12:29:06.300Z,4.73
2023-07-07T12:31:34.321Z,3.73
2023-07-07T12:34:41.165Z,4.23
2023-07-07T12:37:21.789Z,3.20
2023-07-07T12:39:57.025Z,4.10
2023-07-07T12:42:27.148Z,4.23
2023-07-07T12:44:54.604Z,4.13
2023-07-07T12:47:27.983Z,4.63
2023-07-07T12:49:59.280Z,4.90
2023-07-07T12:52:31.090Z,4.33
2023-07-07T12:55:16.500Z,4.03
2023-07-07T12:58:03.985Z,4.50
2023-07-07T13:00:39.016Z,3.47
2023-07-07T13:03:20.328Z,5.27
2023-07-07T13:05:49.959Z,4.33
2023-07-07T13:08:36.746Z,2.70
2023-07-07T13:11:17.187Z,3.57
2023-07-07T13:13:47.342Z,4.20
2023-07-07T13:16:24.313Z,4.27
2023-07-07T13:18:51.435Z,3.10
2023-07-07T13:21:21.423Z,3.93
2023-07-07T13:23:51.453Z,3.73
2023-07-07T13:26:26.350Z,3.53
2023-07-07T13:29:01.414Z,4.33
2023-07-07T13:31:29.238Z,5.73
2023-07-07T13:33:56.290Z,4.00
2023-07-07T13:36:26.424Z,5.70
2023-07-07T13:38:55.075Z,4.37
2023-07-07T13:41:23.193Z,4.63
2023-07-07T13:43:53.780Z,3.73
2023-07-07T13:46:30.875Z,3.97
2023-07-07T13:49:07.424Z,5.00
2023-07-07T13:51:38.620Z,3.77
2023-07-07T13:54:08.813Z,4.83
2023-07-07T13:56:43.064Z,4.80
2023-07-07T13:59:30.718Z,4.50
2023-07-07T14:01:59.109Z,5.97
2023-07-07T14:04:39.538Z,3.90
2023-07-07T14:07:13.571Z,3.80
2023-07-07T14:09:43.918Z,4.63
2023-07-07T14:12:13.618Z,3.80
2023-07-07T14:14:47.432Z,3.30
2023-07-07T14:17:33.631Z,3.43
2023-07-07T14:20:08.727Z,3.20
2023-07-07T14:22:36.323Z,3.30
2023-07-07T14:25:05.555Z,4.23
2023-07-07T14:27:32.906Z,3.70
2023-07-07T14:30:01.033Z,3.33
2023-07-07T14:32:38.320Z,2.93
2023-07-07T14:35:21.627Z,4.13
2023-07-07T14:37:53.487Z,3.30
2023-07-07T14:40:33.070Z,3.47
2023-07-07T14:43:05.020Z,3.30
2023-07-07T14:45:35.431Z,3.90
2023-07-07T14:48:02.973Z,3.27
2023-07-07T14:50:34.435Z,3.70
2023-07-07T14:53:03.768Z,5.20
2023-07-07T14:55:31.964Z,4.30
2023-07-07T14:58:04.600Z,6.33
2023-07-07T15:00:43.281Z,4.60
2023-07-07T15:03:27.730Z,3.90
2023-07-07T15:06:11.401Z,5.97
2023-07-07T15:08:43.877Z,4.53
2023-07-07T15:11:13.827Z,4.30
2023-07-07T15:13:42.958Z,4.30
2023-07-07T15:16:17.174Z,3.93
2023-07-07T15:18:44.143Z,5.67
2023-07-07T15:21:21.303Z,5.90
2023-07-07T15:23:48.499Z,6.77
2023-07-07T15:26:23.132Z,4.10
2023-07-07T15:28:50.154Z,3.73
2023-07-07T15:31:20.460Z,3.30
2023-07-07T15:33:47.616Z,4.30
2023-07-07T15:36:15.739Z,3.90
2023-07-07T15:38:42.629Z,9.53
2023-07-07T15:41:14.747Z,5.07
2023-07-07T15:43:41.779Z,3.40
2023-07-07T15:46:13.699Z,4.27
2023-07-07T15:48:40.842Z,3.60
2023-07-07T15:51:35.998Z,4.53
2023-07-07T15:54:08.828Z,4.30
2023-07-07T15:56:38.352Z,3.10
2023-07-07T15:59:15.907Z,3.60
2023-07-07T16:01:43.313Z,3.93
2023-07-07T16:04:10.437Z,3.97
2023-07-07T16:06:38.463Z,3.50
2023-07-07T16:09:13.141Z,3.17
2023-07-07T16:11:40.182Z,3.40
2023-07-07T16:14:07.272Z,4.10
2023-07-07T16:16:37.122Z,3.80
2023-07-07T16:19:33.705Z,3.53
2023-07-07T16:22:20.905Z,3.83
2023-07-07T16:24:47.912Z,4.40
2023-07-07T16:27:17.050Z,3.27
2023-07-07T16:29:44.824Z,7.07
2023-07-07T16:32:13.748Z,5.27
2023-07-07T16:34:41.605Z,6.30
2023-07-07T16:37:14.639Z,5.80
2023-07-07T16:39:41.721Z,3.90
2023-07-07T16:42:15.598Z,19.37
2023-07-07T16:44:42.615Z,6.93
2023-07-07T16:47:13.912Z,3.90
2023-07-07T16:49:40.973Z,3.73
2023-07-07T16:52:08.867Z,3.80
2023-07-07T16:54:35.975Z,4.27
2023-07-07T16:57:03.040Z,3.93
2023-07-07T16:59:30.050Z,60.57
2023-07-07T17:01:57.087Z,5.50
2023-07-07T17:04:25.784Z,3.77
2023-07-07T17:06:53.374Z,3.40
2023-07-07T17:09:23.085Z,3.63
2023-07-07T17:11:50.299Z,14.20
2023-07-07T17:14:17.357Z,19.10
2023-07-07T17:16:44.971Z,20.43
2023-07-07T17:19:15.583Z,5.43
2023-07-07T17:21:42.647Z,3.60
2023-07-07T17:24:09.794Z,4.07
2023-07-07T17:26:38.921Z,4.17
2023-07-07T17:29:13.109Z,3.70
2023-07-07T17:31:40.378Z,3.40
2023-07-07T17:34:09.740Z,3.83
2023-07-07T17:36:38.333Z,5.37
2023-07-07T17:39:13.026Z,3.83
2023-07-07T17:41:40.156Z,4.27
2023-07-07T17:44:07.221Z,5.20
2023-07-07T17:46:38.020Z,3.60
2023-07-07T17:49:20.866Z,6.40
2023-07-07T17:51:48.750Z,4.40
2023-07-07T17:54:17.155Z,5.40
2023-07-07T17:56:48.904Z,3.93
2023-07-07T17:59:23.178Z,4.00
2023-07-07T18:01:53.541Z,4.57
2023-07-07T18:04:20.680Z,4.47
2023-07-07T18:06:50.766Z,4.40
2023-07-07T18:09:18.620Z,4.43
2023-07-07T18:11:45.921Z,3.27
2023-07-07T18:14:13.273Z,3.90
2023-07-07T18:16:45.908Z,3.90
2023-07-07T18:20:06.836Z,6.70
2023-07-07T18:22:13.191Z,4.67
2023-07-07T18:24:40.529Z,4.40
2023-07-07T18:27:11.502Z,3.50
2023-07-07T18:29:38.803Z,3.97
2023-07-07T18:32:11.269Z,4.00
2023-07-07T18:34:38.949Z,4.23
2023-07-07T18:37:12.063Z,4.80
2023-07-07T18:39:40.839Z,3.70
2023-07-07T18:42:10.588Z,3.83
2023-07-07T18:44:38.176Z,4.40
2023-07-07T18:47:14.960Z,4.20
2023-07-07T18:49:42.819Z,4.40
2023-07-07T18:52:10.414Z,9.80
2023-07-07T18:54:37.697Z,5.50
2023-07-07T18:57:05.063Z,4.03
2023-07-07T18:59:32.324Z,4.67
2023-07-07T19:01:59.495Z,3.50
2023-07-07T19:04:27.383Z,12.23
2023-07-07T19:06:54.410Z,6.53
2023-07-07T19:09:25.262Z,3.83
2023-07-07T19:11:54.407Z,3.20
2023-07-07T19:14:21.561Z,5.40
2023-07-07T19:16:51.997Z,3.43
2023-07-07T19:19:25.505Z,4.03
2023-07-07T19:21:52.765Z,4.23
2023-07-07T19:24:19.811Z,4.57
2023-07-07T19:26:54.284Z,4.40
2023-07-07T19:29:21.461Z,3.93
2023-07-07T19:31:52.386Z,4.33
2023-07-07T19:34:19.964Z,5.30
2023-07-07T19:36:48.399Z,4.87
2023-07-07T19:39:17.087Z,4.33
2023-07-07T19:41:45.063Z,6.17
2023-07-07T19:44:14.993Z,5.30
2023-07-07T19:46:43.876Z,5.77
2023-07-07T19:49:19.151Z,5.33
2023-07-07T19:51:47.496Z,4.10
2023-07-07T19:54:14.968Z,7.23
2023-07-07T19:56:42.108Z,4.60
2023-07-07T19:59:20.310Z,4.90
2023-07-07T20:01:48.928Z,6.40
2023-07-07T20:04:16.566Z,8.10
2023-07-07T20:06:46.059Z,6.87
2023-07-07T20:09:21.262Z,6.43
2023-07-07T20:11:49.726Z,6.60
2023-07-07T20:14:16.897Z,8.93
2023-07-07T20:16:52.317Z,9.43
2023-07-07T20:19:23.293Z,8.10
2023-07-07T20:21:52.456Z,11.40
2023-07-07T20:24:22.093Z,13.13
2023-07-07T20:26:56.779Z,7.63
2023-07-07T20:29:26.260Z,5.13
2023-07-07T20:31:53.561Z,5.93
2023-07-07T20:34:20.772Z,6.40
2023-07-07T20:36:48.997Z,5.73
2023-07-07T20:39:18.904Z,6.33
2023-07-07T20:41:46.704Z,6.67
2023-07-07T20:44:13.710Z,6.03
2023-07-07T20:46:43.501Z,5.40
2023-07-07T20:49:19.832Z,6.67
2023-07-07T20:51:48.107Z,8.50
2023-07-07T20:54:15.516Z,5.90
2023-07-07T20:56:42.983Z,7.23
2023-07-07T21:01:45.373Z,5.70
2023-07-07T21:04:12.608Z,6.97
2023-07-07T21:06:39.730Z,5.13
2023-07-07T21:09:12.579Z,6.07
2023-07-07T21:11:40.001Z,8.30
2023-07-07T21:14:07.502Z,8.43
2023-07-07T21:16:35.846Z,6.70
2023-07-07T21:19:03.013Z,10.53
2023-07-07T21:21:30.017Z,7.07
2023-07-07T21:23:57.686Z,9.63
2023-07-07T21:26:29.320Z,5.83
2023-07-07T21:28:56.706Z,5.90
2023-07-07T21:31:27.459Z,5.43
2023-07-07T21:33:54.411Z,6.10
2023-07-07T21:36:30.587Z,5.93
2023-07-07T21:39:02.364Z,5.60
2023-07-07T21:41:35.208Z,5.63
2023-07-07T21:44:09.521Z,4.60
2023-07-07T21:46:39.659Z,5.50
2023-07-07T21:49:09.500Z,7.57
2023-07-07T21:51:36.823Z,6.50
2023-07-07T21:54:03.903Z,5.90
2023-07-07T21:56:33.692Z,5.10
2023-07-07T21:59:17.602Z,7.17
2023-07-07T22:01:45.777Z,8.50
2023-07-07T22:04:13.648Z,8.40
2023-07-07T22:06:40.869Z,7.60
2023-07-07T22:09:16.676Z,13.43
2023-07-07T22:11:45.408Z,6.77
2023-07-07T22:14:12.516Z,7.00
2023-07-07T22:16:39.572Z,7.67
2023-07-07T22:19:06.671Z,5.87
2023-07-07T22:21:33.617Z,8.30
2023-07-07T22:24:00.700Z,7.60
2023-07-07T22:26:29.007Z,8.97
2023-07-07T22:28:55.980Z,7.80
2023-07-07T22:31:23.272Z,6.10
2023-07-07T22:33:50.256Z,6.67
2023-07-07T22:36:26.239Z,10.03
2023-07-07T22:38:53.479Z,9.80
2023-07-07T22:41:25.807Z,7.57
2023-07-07T22:43:52.892Z,11.60
2023-07-07T22:46:21.805Z,13.27
2023-07-07T22:48:49.445Z,7.13
2023-07-07T22:51:17.682Z,8.10
2023-07-07T22:53:45.255Z,6.63
2023-07-07T22:56:26.146Z,5.80
2023-07-07T22:58:54.371Z,5.93
2023-07-07T23:01:22.334Z,5.50
2023-07-07T23:03:51.980Z,9.40
2023-07-07T23:06:18.998Z,8.53
2023-07-07T23:08:46.036Z,8.10
2023-07-07T23:11:15.105Z,8.30
2023-07-07T23:13:42.309Z,8.00
2023-07-07T23:16:14.904Z,9.67
2023-07-07T23:18:42.946Z,8.77
2023-07-07T23:21:15.542Z,6.67
2023-07-07T23:23:43.319Z,6.67
2023-07-07T23:26:28.809Z,6.00
2023-07-07T23:28:57.266Z,6.70
2023-07-07T23:31:29.082Z,6.87
2023-07-07T23:33:57.059Z,7.17
2023-07-07T23:36:32.838Z,6.40
2023-07-07T23:39:01.963Z,7.27
2023-07-07T23:41:29.377Z,6.60
2023-07-07T23:43:56.639Z,6.60
2023-07-07T23:46:23.956Z,6.60
2023-07-07T23:48:50.970Z,7.27
2023-07-07T23:51:18.199Z,8.90
2023-07-07T23:53:47.660Z,6.47
2023-07-07T23:56:23.197Z,6.20
2023-07-07T23:58:51.018Z,6.90
